sensor_id;sensor_type;location;lat;lon;timestamp;pressure;altitude;pressure_sealevel;temperature;humidity
2188;BME280;1100;52.014;8.540;2022-08-21T00:00:19;100266.78;;;22.12;57.71
2188;BME280;1100;52.014;8.540;2022-08-21T00:02:55;100272.94;;;22.10;58.02
2188;BME280;1100;52.014;8.540;2022-08-21T00:05:24;100261.63;;;22.10;57.68
2188;BME280;1100;52.014;8.540;2022-08-21T00:07:50;100264.47;;;22.10;57.68
2188;BME280;1100;52.014;8.540;2022-08-21T00:10:16;100260.84;;;22.10;57.81
2188;BME280;1100;52.014;8.540;2022-08-21T00:12:43;100254.41;;;22.09;57.59
2188;BME280;1100;52.014;8.540;2022-08-21T00:15:10;100262.38;;;22.11;57.65
2188;BME280;1100;52.014;8.540;2022-08-21T00:17:36;100258.28;;;22.12;57.94
2188;BME280;1100;52.014;8.540;2022-08-21T00:20:05;100251.06;;;22.11;57.76
2188;BME280;1100;52.014;8.540;2022-08-21T00:22:31;100257.00;;;22.13;57.64
2188;BME280;1100;52.014;8.540;2022-08-21T00:24:57;100249.00;;;22.11;57.66
2188;BME280;1100;52.014;8.540;2022-08-21T00:27:23;100246.19;;;22.11;57.84
2188;BME280;1100;52.014;8.540;2022-08-21T00:29:49;100252.63;;;22.12;57.83
2188;BME280;1100;52.014;8.540;2022-08-21T00:32:20;100261.13;;;22.12;57.62
2188;BME280;1100;52.014;8.540;2022-08-21T00:34:46;100257.00;;;22.13;57.60
2188;BME280;1100;52.014;8.540;2022-08-21T00:37:12;100255.44;;;22.12;57.79
2188;BME280;1100;52.014;8.540;2022-08-21T00:39:37;100255.44;;;22.12;57.54
2188;BME280;1100;52.014;8.540;2022-08-21T00:42:02;100258.28;;;22.12;57.73
2188;BME280;1100;52.014;8.540;2022-08-21T00:44:28;100254.66;;;22.11;57.77
2188;BME280;1100;52.014;8.540;2022-08-21T00:46:53;100251.84;;;22.11;57.58
2188;BME280;1100;52.014;8.540;2022-08-21T00:49:18;100255.44;;;22.12;57.70
2188;BME280;1100;52.014;8.540;2022-08-21T00:51:54;100252.34;;;22.10;57.49
2188;BME280;1100;52.014;8.540;2022-08-21T00:54:24;100256.72;;;22.11;57.54
2188;BME280;1100;52.014;8.540;2022-08-21T00:56:54;100249.53;;;22.10;57.54
2188;BME280;1100;52.014;8.540;2022-08-21T00:59:21;100253.13;;;22.10;57.81
2188;BME280;1100;52.014;8.540;2022-08-21T01:01:48;100256.72;;;22.11;57.80
2188;BME280;1100;52.014;8.540;2022-08-21T01:04:14;100256.72;;;22.11;57.92
2188;BME280;1100;52.014;8.540;2022-08-21T01:06:41;100261.88;;;22.12;57.84
2188;BME280;1100;52.014;8.540;2022-08-21T01:09:06;100261.13;;;22.12;57.63
2188;BME280;1100;52.014;8.540;2022-08-21T01:11:31;100248.50;;;22.13;57.69
2188;BME280;1100;52.014;8.540;2022-08-21T01:13:57;100247.72;;;22.12;57.63
2188;BME280;1100;52.014;8.540;2022-08-21T01:16:23;100255.69;;;22.14;57.76
2188;BME280;1100;52.014;8.540;2022-08-21T01:18:50;100249.28;;;22.13;57.68
2188;BME280;1100;52.014;8.540;2022-08-21T01:21:24;100254.16;;;22.13;57.58
2188;BME280;1100;52.014;8.540;2022-08-21T01:23:53;100252.84;;;22.14;57.67
2188;BME280;1100;52.014;8.540;2022-08-21T01:26:27;100250.03;;;22.14;58.00
2188;BME280;1100;52.014;8.540;2022-08-21T01:29:22;100249.28;;;22.13;57.75
2188;BME280;1100;52.014;8.540;2022-08-21T01:31:51;100244.38;;;22.14;57.60
2188;BME280;1100;52.014;8.540;2022-08-21T01:34:17;100243.63;;;22.13;57.74
2188;BME280;1100;52.014;8.540;2022-08-21T01:36:44;100244.88;;;22.12;57.90
2188;BME280;1100;52.014;8.540;2022-08-21T01:39:11;100248.50;;;22.13;57.72
2188;BME280;1100;52.014;8.540;2022-08-21T01:41:37;100245.66;;;22.13;58.04
2188;BME280;1100;52.014;8.540;2022-08-21T01:44:02;100247.72;;;22.12;57.69
2188;BME280;1100;52.014;8.540;2022-08-21T01:46:28;100258.03;;;22.10;57.70
2188;BME280;1100;52.014;8.540;2022-08-21T01:48:53;100249.53;;;22.04;57.70
2188;BME280;1100;52.014;8.540;2022-08-21T01:51:18;100240.56;;;21.94;57.83
2188;BME280;1100;52.014;8.540;2022-08-21T01:53:44;100245.44;;;21.88;57.94
2188;BME280;1100;52.014;8.540;2022-08-21T01:56:12;100239.28;;;21.84;57.97
2188;BME280;1100;52.014;8.540;2022-08-21T01:58:40;100243.16;;;21.81;58.12
2188;BME280;1100;52.014;8.540;2022-08-21T02:01:06;100237.75;;;21.77;57.81
2188;BME280;1100;52.014;8.540;2022-08-21T02:03:31;100239.53;;;21.74;57.78
2188;BME280;1100;52.014;8.540;2022-08-21T02:05:57;100242.84;;;21.67;57.77
2188;BME280;1100;52.014;8.540;2022-08-21T02:08:23;100244.16;;;21.60;58.10
2188;BME280;1100;52.014;8.540;2022-08-21T02:10:49;100246.72;;;21.52;57.80
2188;BME280;1100;52.014;8.540;2022-08-21T02:13:16;100247.22;;;21.45;57.99
2188;BME280;1100;52.014;8.540;2022-08-21T02:15:41;100248.25;;;21.36;57.97
2188;BME280;1100;52.014;8.540;2022-08-21T02:18:07;100241.28;;;21.20;57.93
2188;BME280;1100;52.014;8.540;2022-08-21T02:20:39;100238.94;;;21.07;58.00
2188;BME280;1100;52.014;8.540;2022-08-21T02:23:05;100240.22;;;21.00;58.32
2188;BME280;1100;52.014;8.540;2022-08-21T02:25:31;100238.38;;;20.91;58.10
2188;BME280;1100;52.014;8.540;2022-08-21T02:27:58;100233.19;;;20.84;58.35
2188;BME280;1100;52.014;8.540;2022-08-21T02:30:28;100231.91;;;20.79;58.28
2188;BME280;1100;52.014;8.540;2022-08-21T02:32:55;100225.22;;;20.77;58.27
2188;BME280;1100;52.014;8.540;2022-08-21T02:35:21;100230.84;;;20.71;58.40
2188;BME280;1100;52.014;8.540;2022-08-21T02:37:52;100232.13;;;20.70;58.64
2188;BME280;1100;52.014;8.540;2022-08-21T02:40:21;100229.03;;;20.68;58.57
2188;BME280;1100;52.014;8.540;2022-08-21T02:42:47;100228.50;;;20.64;58.61
2188;BME280;1100;52.014;8.540;2022-08-21T02:45:13;100225.41;;;20.62;58.70
2188;BME280;1100;52.014;8.540;2022-08-21T02:47:40;100220.78;;;20.59;58.56
2188;BME280;1100;52.014;8.540;2022-08-21T02:50:11;100223.59;;;20.59;58.81
2188;BME280;1100;52.014;8.540;2022-08-21T02:52:36;100217.72;;;20.57;58.79
2188;BME280;1100;52.014;8.540;2022-08-21T02:55:02;100224.63;;;20.56;58.83
2188;BME280;1100;52.014;8.540;2022-08-21T02:57:28;100223.06;;;20.54;58.92
2188;BME280;1100;52.014;8.540;2022-08-21T02:59:53;100217.16;;;20.52;59.02
2188;BME280;1100;52.014;8.540;2022-08-21T03:02:18;100223.31;;;20.51;58.88
2188;BME280;1100;52.014;8.540;2022-08-21T03:04:44;100222.00;;;20.46;58.89
2188;BME280;1100;52.014;8.540;2022-08-21T03:07:09;100227.91;;;20.42;58.91
2188;BME280;1100;52.014;8.540;2022-08-21T03:09:34;100219.69;;;20.39;58.95
2188;BME280;1100;52.014;8.540;2022-08-21T03:12:00;100220.97;;;20.38;58.84
2188;BME280;1100;52.014;8.540;2022-08-21T03:14:25;100213.50;;;20.35;59.06
2188;BME280;1100;52.014;8.540;2022-08-21T03:16:50;100217.28;;;20.26;58.99
2188;BME280;1100;52.014;8.540;2022-08-21T03:19:16;100218.06;;;20.21;59.00
2188;BME280;1100;52.014;8.540;2022-08-21T03:21:41;100220.31;;;20.16;59.11
2188;BME280;1100;52.014;8.540;2022-08-21T03:24:06;100226.47;;;20.15;59.20
2188;BME280;1100;52.014;8.540;2022-08-21T03:26:32;100225.94;;;20.11;59.20
2188;BME280;1100;52.014;8.540;2022-08-21T03:28:57;100218.47;;;20.08;59.28
2188;BME280;1100;52.014;8.540;2022-08-21T03:31:23;100223.34;;;20.07;59.31
2188;BME280;1100;52.014;8.540;2022-08-21T03:33:49;100218.72;;;20.04;59.40
2188;BME280;1100;52.014;8.540;2022-08-21T03:36:15;100225.63;;;20.03;59.33
2188;BME280;1100;52.014;8.540;2022-08-21T03:38:41;100229.25;;;20.03;59.61
2188;BME280;1100;52.014;8.540;2022-08-21T03:41:07;100223.09;;;20.05;59.57
2188;BME280;1100;52.014;8.540;2022-08-21T03:43:32;100228.22;;;20.07;59.55
2188;BME280;1100;52.014;8.540;2022-08-21T03:46:00;100233.38;;;20.08;59.66
2188;BME280;1100;52.014;8.540;2022-08-21T03:48:27;100230.03;;;20.10;59.54
2188;BME280;1100;52.014;8.540;2022-08-21T03:50:53;100231.84;;;20.13;59.69
2188;BME280;1100;52.014;8.540;2022-08-21T03:53:18;100225.72;;;20.14;59.65
2188;BME280;1100;52.014;8.540;2022-08-21T03:55:46;100223.91;;;20.17;59.75
2188;BME280;1100;52.014;8.540;2022-08-21T03:58:11;100236.00;;;20.17;59.52
2188;BME280;1100;52.014;8.540;2022-08-21T04:00:37;100229.56;;;20.17;59.69
2188;BME280;1100;52.014;8.540;2022-08-21T04:03:03;100230.84;;;20.16;59.76
2188;BME280;1100;52.014;8.540;2022-08-21T04:05:28;100233.66;;;20.16;59.68
2188;BME280;1100;52.014;8.540;2022-08-21T04:07:58;100238.25;;;20.13;59.73
2188;BME280;1100;52.014;8.540;2022-08-21T04:10:26;100242.38;;;20.12;59.71
2188;BME280;1100;52.014;8.540;2022-08-21T04:12:52;100238.22;;;20.08;59.56
2188;BME280;1100;52.014;8.540;2022-08-21T04:15:20;100240.78;;;20.06;59.63
2188;BME280;1100;52.014;8.540;2022-08-21T04:17:45;100243.34;;;20.03;59.67
2188;BME280;1100;52.014;8.540;2022-08-21T04:20:11;100237.09;;;19.99;59.74
2188;BME280;1100;52.014;8.540;2022-08-21T04:22:37;100244.25;;;19.95;59.67
2188;BME280;1100;52.014;8.540;2022-08-21T04:25:03;100247.31;;;19.91;59.67
2188;BME280;1100;52.014;8.540;2022-08-21T04:27:28;100251.91;;;19.88;59.77
2188;BME280;1100;52.014;8.540;2022-08-21T04:29:54;100251.63;;;19.86;59.87
2188;BME280;1100;52.014;8.540;2022-08-21T04:32:23;100251.63;;;19.86;59.96
2188;BME280;1100;52.014;8.540;2022-08-21T04:34:49;100238.28;;;19.81;59.81
2188;BME280;1100;52.014;8.540;2022-08-21T04:37:15;100253.88;;;19.76;59.80
2188;BME280;1100;52.014;8.540;2022-08-21T04:39:41;100253.31;;;19.72;59.86
2188;BME280;1100;52.014;8.540;2022-08-21T04:42:07;100249.47;;;19.70;59.75
2188;BME280;1100;52.014;8.540;2022-08-21T04:44:34;100255.09;;;19.70;59.87
2188;BME280;1100;52.014;8.540;2022-08-21T04:46:59;100253.31;;;19.72;60.18
2188;BME280;1100;52.014;8.540;2022-08-21T04:49:24;100265.69;;;19.80;60.17
2188;BME280;1100;52.014;8.540;2022-08-21T04:51:50;100260.66;;;19.90;60.30
2188;BME280;1100;52.014;8.540;2022-08-21T04:54:20;100263.84;;;20.04;60.30
2188;BME280;1100;52.014;8.540;2022-08-21T04:57:00;100263.44;;;20.17;60.41
2188;BME280;1100;52.014;8.540;2022-08-21T04:59:34;100255.03;;;20.28;60.27
2188;BME280;1100;52.014;8.540;2022-08-21T05:02:01;100260.22;;;20.41;60.29
2188;BME280;1100;52.014;8.540;2022-08-21T05:04:29;100266.44;;;20.51;60.26
2188;BME280;1100;52.014;8.540;2022-08-21T05:06:58;100267.75;;;20.62;60.20
2188;BME280;1100;52.014;8.540;2022-08-21T05:09:26;100274.47;;;20.70;60.27
2188;BME280;1100;52.014;8.540;2022-08-21T05:11:52;100280.41;;;20.78;59.98
2188;BME280;1100;52.014;8.540;2022-08-21T05:14:17;100276.34;;;20.85;60.04
2188;BME280;1100;52.014;8.540;2022-08-21T05:16:44;100277.16;;;20.91;60.01
2188;BME280;1100;52.014;8.540;2022-08-21T05:19:10;100281.53;;;20.98;59.87
2188;BME280;1100;52.014;8.540;2022-08-21T05:21:38;100280.28;;;21.04;59.88
2188;BME280;1100;52.014;8.540;2022-08-21T05:24:04;100272.59;;;21.11;59.74
2188;BME280;1100;52.014;8.540;2022-08-21T05:26:30;100269.03;;;21.16;59.71
2188;BME280;1100;52.014;8.540;2022-08-21T05:28:55;100271.59;;;21.20;59.89
2188;BME280;1100;52.014;8.540;2022-08-21T05:31:20;100277.25;;;21.25;59.86
2188;BME280;1100;52.014;8.540;2022-08-21T05:33:46;100273.41;;;21.28;59.74
2188;BME280;1100;52.014;8.540;2022-08-21T05:36:11;100281.16;;;21.34;59.78
2188;BME280;1100;52.014;8.540;2022-08-21T05:38:37;100280.38;;;21.39;59.64
2188;BME280;1100;52.014;8.540;2022-08-21T05:41:02;100276.50;;;21.42;59.55
2188;BME280;1100;52.014;8.540;2022-08-21T05:43:27;100294.00;;;21.46;59.36
2188;BME280;1100;52.014;8.540;2022-08-21T05:45:53;100290.16;;;21.49;59.44
2188;BME280;1100;52.014;8.540;2022-08-21T05:48:23;100289.88;;;21.53;59.47
2188;BME280;1100;52.014;8.540;2022-08-21T05:50:50;100288.13;;;21.56;59.61
2188;BME280;1100;52.014;8.540;2022-08-21T05:53:18;100291.97;;;21.58;59.50
2188;BME280;1100;52.014;8.540;2022-08-21T05:55:45;100292.22;;;21.60;59.56
2188;BME280;1100;52.014;8.540;2022-08-21T05:58:17;100282.72;;;21.63;59.55
2188;BME280;1100;52.014;8.540;2022-08-21T06:00:44;100289.41;;;21.66;59.36
2188;BME280;1100;52.014;8.540;2022-08-21T06:03:20;100287.59;;;21.69;59.43
2188;BME280;1100;52.014;8.540;2022-08-21T06:05:46;100286.31;;;21.70;59.43
2188;BME280;1100;52.014;8.540;2022-08-21T06:08:13;100284.50;;;21.72;59.41
2188;BME280;1100;52.014;8.540;2022-08-21T06:10:39;100287.59;;;21.74;59.39
2188;BME280;1100;52.014;8.540;2022-08-21T06:13:04;100280.66;;;21.75;59.36
2188;BME280;1100;52.014;8.540;2022-08-21T06:15:30;100276.56;;;21.76;59.22
2188;BME280;1100;52.014;8.540;2022-08-21T06:17:56;100277.59;;;21.79;59.06
2188;BME280;1100;52.014;8.540;2022-08-21T06:20:22;100284.03;;;21.80;59.00
2188;BME280;1100;52.014;8.540;2022-08-21T06:22:48;100277.84;;;21.81;59.23
2188;BME280;1100;52.014;8.540;2022-08-21T06:25:13;100288.66;;;21.83;59.04
2188;BME280;1100;52.014;8.540;2022-08-21T06:27:39;100277.34;;;21.83;59.28
2188;BME280;1100;52.014;8.540;2022-08-21T06:30:05;100286.09;;;21.85;59.17
2188;BME280;1100;52.014;8.540;2022-08-21T06:32:31;100289.19;;;21.87;59.10
2188;BME280;1100;52.014;8.540;2022-08-21T06:34:56;100286.34;;;21.87;59.25
2188;BME280;1100;52.014;8.540;2022-08-21T06:37:24;100290.72;;;21.88;59.18
2188;BME280;1100;52.014;8.540;2022-08-21T06:39:50;100281.44;;;21.87;58.81
2188;BME280;1100;52.014;8.540;2022-08-21T06:42:16;100282.22;;;21.88;59.07
2188;BME280;1100;52.014;8.540;2022-08-21T06:44:43;100281.72;;;21.89;58.96
2188;BME280;1100;52.014;8.540;2022-08-21T06:47:08;100277.34;;;21.88;58.83
2188;BME280;1100;52.014;8.540;2022-08-21T06:49:34;100277.59;;;21.90;59.05
2188;BME280;1100;52.014;8.540;2022-08-21T06:52:00;100283.25;;;21.90;58.83
2188;BME280;1100;52.014;8.540;2022-08-21T06:54:26;100291.22;;;21.92;58.81
2188;BME280;1100;52.014;8.540;2022-08-21T06:56:51;100283.50;;;21.93;58.99
2188;BME280;1100;52.014;8.540;2022-08-21T06:59:17;100285.03;;;21.94;58.98
2188;BME280;1100;52.014;8.540;2022-08-21T07:01:43;100282.22;;;21.94;58.80
2188;BME280;1100;52.014;8.540;2022-08-21T07:04:08;100278.63;;;21.93;58.87
2188;BME280;1100;52.014;8.540;2022-08-21T07:06:34;100274.25;;;21.92;59.10
2188;BME280;1100;52.014;8.540;2022-08-21T07:08:59;100277.59;;;21.90;58.90
2188;BME280;1100;52.014;8.540;2022-08-21T07:11:26;100275.78;;;21.82;58.75
2188;BME280;1100;52.014;8.540;2022-08-21T07:13:52;100274.72;;;21.73;58.78
2188;BME280;1100;52.014;8.540;2022-08-21T07:16:20;100274.75;;;21.62;58.26
2188;BME280;1100;52.014;8.540;2022-08-21T07:18:46;100275.50;;;21.51;58.32
2188;BME280;1100;52.014;8.540;2022-08-21T07:21:11;100273.97;;;21.38;58.43
2188;BME280;1100;52.014;8.540;2022-08-21T07:23:46;100275.97;;;21.26;58.25
2188;BME280;1100;52.014;8.540;2022-08-21T07:26:14;100271.31;;;21.12;58.15
2188;BME280;1100;52.014;8.540;2022-08-21T07:28:40;100278.19;;;20.99;58.34
2188;BME280;1100;52.014;8.540;2022-08-21T07:31:05;100270.44;;;20.88;58.18
2188;BME280;1100;52.014;8.540;2022-08-21T07:33:33;100276.84;;;20.83;58.41
2188;BME280;1100;52.014;8.540;2022-08-21T07:35:59;100271.44;;;20.79;58.48
2188;BME280;1100;52.014;8.540;2022-08-21T07:38:25;100273.25;;;20.77;58.40
2188;BME280;1100;52.014;8.540;2022-08-21T07:40:52;100275.28;;;20.76;58.46
2188;BME280;1100;52.014;8.540;2022-08-21T07:43:19;100266.81;;;20.76;58.73
2188;BME280;1100;52.014;8.540;2022-08-21T07:45:47;100276.06;;;20.77;58.55
2188;BME280;1100;52.014;8.540;2022-08-21T07:48:14;100273.97;;;20.72;58.55
2188;BME280;1100;52.014;8.540;2022-08-21T07:50:40;100269.34;;;20.69;58.57
2188;BME280;1100;52.014;8.540;2022-08-21T07:53:06;100267.53;;;20.65;58.66
2188;BME280;1100;52.014;8.540;2022-08-21T07:55:32;100267.25;;;20.63;58.64
2188;BME280;1100;52.014;8.540;2022-08-21T07:57:58;100267.25;;;20.63;58.79
2188;BME280;1100;52.014;8.540;2022-08-21T08:00:25;100269.31;;;20.63;58.53
2188;BME280;1100;52.014;8.540;2022-08-21T08:02:52;100267.75;;;20.62;58.61
2188;BME280;1100;52.014;8.540;2022-08-21T08:05:21;100271.38;;;20.62;58.67
2188;BME280;1100;52.014;8.540;2022-08-21T08:07:47;100274.19;;;20.62;58.50
2188;BME280;1100;52.014;8.540;2022-08-21T08:10:12;100267.75;;;20.62;58.58
2188;BME280;1100;52.014;8.540;2022-08-21T08:12:40;100269.84;;;20.61;58.57
2188;BME280;1100;52.014;8.540;2022-08-21T08:15:10;100270.59;;;20.62;58.51
2188;BME280;1100;52.014;8.540;2022-08-21T08:17:36;100271.59;;;20.59;58.42
2188;BME280;1100;52.014;8.540;2022-08-21T08:20:04;100267.25;;;20.58;58.36
2188;BME280;1100;52.014;8.540;2022-08-21T08:22:30;100265.72;;;20.57;58.25
2188;BME280;1100;52.014;8.540;2022-08-21T08:24:55;100261.81;;;20.54;58.31
2188;BME280;1100;52.014;8.540;2022-08-21T08:27:22;100270.28;;;20.54;58.20
2188;BME280;1100;52.014;8.540;2022-08-21T08:29:48;100272.38;;;20.53;58.18
2188;BME280;1100;52.014;8.540;2022-08-21T08:32:13;100270.28;;;20.54;58.21
2188;BME280;1100;52.014;8.540;2022-08-21T08:34:39;100271.59;;;20.53;58.09
2188;BME280;1100;52.014;8.540;2022-08-21T08:37:07;100260.28;;;20.53;58.05
2188;BME280;1100;52.014;8.540;2022-08-21T08:39:33;100262.59;;;20.54;58.20
2188;BME280;1100;52.014;8.540;2022-08-21T08:44:28;100254.94;;;20.61;58.18
2188;BME280;1100;52.014;8.540;2022-08-21T08:46:55;100247.75;;;20.65;58.22
2188;BME280;1100;52.014;8.540;2022-08-21T08:54:36;100254.72;;;20.76;58.08
2188;BME280;1100;52.014;8.540;2022-08-21T08:57:08;100252.97;;;20.78;58.03
2188;BME280;1100;52.014;8.540;2022-08-21T08:59:48;100250.38;;;20.81;57.99
2188;BME280;1100;52.014;8.540;2022-08-21T09:02:15;100242.19;;;20.83;57.92
2188;BME280;1100;52.014;8.540;2022-08-21T09:04:42;100239.88;;;20.87;58.03
2188;BME280;1100;52.014;8.540;2022-08-21T09:10:12;100237.63;;;20.91;57.83
2188;BME280;1100;52.014;8.540;2022-08-21T09:12:51;100233.78;;;20.94;57.84
2188;BME280;1100;52.014;8.540;2022-08-21T09:26:16;100244.84;;;21.03;57.54
2188;BME280;1100;52.014;8.540;2022-08-21T09:28:43;100228.13;;;21.06;57.64
2188;BME280;1100;52.014;8.540;2022-08-21T09:31:19;100240.50;;;21.08;57.43
2188;BME280;1100;52.014;8.540;2022-08-21T09:33:46;100232.75;;;21.09;57.42
2188;BME280;1100;52.014;8.540;2022-08-21T09:36:11;100223.25;;;21.12;57.45
2188;BME280;1100;52.014;8.540;2022-08-21T09:38:36;100231.22;;;21.13;57.47
2188;BME280;1100;52.014;8.540;2022-08-21T09:41:09;100229.19;;;21.14;57.45
2188;BME280;1100;52.014;8.540;2022-08-21T09:43:37;100224.56;;;21.16;57.55
2188;BME280;1100;52.014;8.540;2022-08-21T09:46:10;100240.50;;;21.20;57.51
2188;BME280;1100;52.014;8.540;2022-08-21T09:48:46;100223.53;;;21.20;57.34
2188;BME280;1100;52.014;8.540;2022-08-21T09:51:19;100226.13;;;21.23;57.49
2188;BME280;1100;52.014;8.540;2022-08-21T09:53:55;100225.09;;;21.26;57.36
2188;BME280;1100;52.014;8.540;2022-08-21T09:59:30;100217.41;;;21.33;57.48
2188;BME280;1100;52.014;8.540;2022-08-21T10:01:58;100217.66;;;21.35;57.43
2188;BME280;1100;52.014;8.540;2022-08-21T10:04:32;100210.47;;;21.34;57.09
2188;BME280;1100;52.014;8.540;2022-08-21T10:07:09;100210.97;;;21.38;57.01
2188;BME280;1100;52.014;8.540;2022-08-21T10:09:35;100207.91;;;21.41;57.11
2188;BME280;1100;52.014;8.540;2022-08-21T10:12:20;100204.81;;;21.45;57.00
2188;BME280;1100;52.014;8.540;2022-08-21T10:25:35;100193.50;;;21.57;57.02
2188;BME280;1100;52.014;8.540;2022-08-21T10:28:13;100196.06;;;21.60;57.03
2188;BME280;1100;52.014;8.540;2022-08-21T10:30:50;100185.78;;;21.63;56.99
2188;BME280;1100;52.014;8.540;2022-08-21T10:33:41;100184.75;;;21.66;57.05
2188;BME280;1100;52.014;8.540;2022-08-21T10:36:13;100186.28;;;21.73;57.05
2188;BME280;1100;52.014;8.540;2022-08-21T10:42:07;100185.78;;;21.80;56.94
2188;BME280;1100;52.014;8.540;2022-08-21T10:44:49;100189.13;;;21.84;56.75
2188;BME280;1100;52.014;8.540;2022-08-21T10:50:25;100180.63;;;21.90;56.79
2188;BME280;1100;52.014;8.540;2022-08-21T10:52:56;100180.34;;;21.94;56.57
2188;BME280;1100;52.014;8.540;2022-08-21T10:58:02;100169.56;;;21.98;56.69
2188;BME280;1100;52.014;8.540;2022-08-21T11:00:50;100171.09;;;21.99;56.59
2188;BME280;1100;52.014;8.540;2022-08-21T11:03:29;100165.44;;;21.99;56.21
2188;BME280;1100;52.014;8.540;2022-08-21T11:06:20;100163.88;;;22.03;56.25
2188;BME280;1100;52.014;8.540;2022-08-21T11:08:51;100176.72;;;22.05;56.39
2188;BME280;1100;52.014;8.540;2022-08-21T11:11:36;100166.44;;;22.07;56.20
2188;BME280;1100;52.014;8.540;2022-08-21T11:14:20;100163.09;;;22.09;56.15
2188;BME280;1100;52.014;8.540;2022-08-21T11:16:55;100171.06;;;22.10;56.27
2188;BME280;1100;52.014;8.540;2022-08-21T11:19:33;100164.88;;;22.12;56.08
2188;BME280;1100;52.014;8.540;2022-08-21T11:22:12;100163.59;;;22.13;55.96
2188;BME280;1100;52.014;8.540;2022-08-21T11:24:44;100167.19;;;22.13;55.82
2188;BME280;1100;52.014;8.540;2022-08-21T11:27:25;100161.00;;;22.15;56.08
2188;BME280;1100;52.014;8.540;2022-08-21T11:29:54;100161.75;;;22.15;56.10
2188;BME280;1100;52.014;8.540;2022-08-21T11:43:39;100171.00;;;22.22;55.82
2188;BME280;1100;52.014;8.540;2022-08-21T11:49:02;100173.56;;;22.25;55.76
2188;BME280;1100;52.014;8.540;2022-08-21T11:51:46;100177.94;;;22.26;55.90
2188;BME280;1100;52.014;8.540;2022-08-21T11:56:45;100168.19;;;22.27;55.58
2188;BME280;1100;52.014;8.540;2022-08-21T11:59:20;100161.22;;;22.28;55.36
2188;BME280;1100;52.014;8.540;2022-08-21T12:01:50;100154.78;;;22.28;55.69
2188;BME280;1100;52.014;8.540;2022-08-21T12:04:18;100164.03;;;22.28;55.33
2188;BME280;1100;52.014;8.540;2022-08-21T12:06:47;100173.31;;;22.29;55.61
2188;BME280;1100;52.014;8.540;2022-08-21T12:12:04;100167.13;;;22.31;55.41
2188;BME280;1100;52.014;8.540;2022-08-21T12:15:11;100160.16;;;22.32;55.43
2188;BME280;1100;52.014;8.540;2022-08-21T12:17:40;100164.31;;;22.31;55.43
2188;BME280;1100;52.014;8.540;2022-08-21T12:22:53;100158.88;;;22.33;55.10
2188;BME280;1100;52.014;8.540;2022-08-21T12:25:20;100160.44;;;22.34;55.05
2188;BME280;1100;52.014;8.540;2022-08-21T12:27:52;100155.50;;;22.34;55.07
2188;BME280;1100;52.014;8.540;2022-08-21T12:32:58;100157.59;;;22.34;55.07
2188;BME280;1100;52.014;8.540;2022-08-21T12:35:30;100162.75;;;22.35;54.92
2188;BME280;1100;52.014;8.540;2022-08-21T12:38:07;100157.81;;;22.36;54.94
2188;BME280;1100;52.014;8.540;2022-08-21T12:40:41;100159.13;;;22.35;55.07
2188;BME280;1100;52.014;8.540;2022-08-21T12:43:13;100154.75;;;22.34;54.73
2188;BME280;1100;52.014;8.540;2022-08-21T12:45:43;100153.47;;;22.35;55.04
2188;BME280;1100;52.014;8.540;2022-08-21T12:53:54;100147.28;;;22.36;54.88
2188;BME280;1100;52.014;8.540;2022-08-21T12:56:28;100149.34;;;22.36;54.47
2188;BME280;1100;52.014;8.540;2022-08-21T12:59:06;100137.47;;;22.37;54.58
2188;BME280;1100;52.014;8.540;2022-08-21T13:04:07;100148.59;;;22.35;54.37
2188;BME280;1100;52.014;8.540;2022-08-21T13:06:39;100146.75;;;22.38;54.52
2188;BME280;1100;52.014;8.540;2022-08-21T13:09:08;100145.97;;;22.37;54.50
2188;BME280;1100;52.014;8.540;2022-08-21T13:11:35;100130.56;;;22.38;54.26
2188;BME280;1100;52.014;8.540;2022-08-21T13:14:02;100146.22;;;22.39;54.37
2188;BME280;1100;52.014;8.540;2022-08-21T13:16:29;100147.00;;;22.40;54.21
2188;BME280;1100;52.014;8.540;2022-08-21T13:19:00;100142.88;;;22.41;54.47
2188;BME280;1100;52.014;8.540;2022-08-21T13:21:35;100133.09;;;22.42;54.39
2188;BME280;1100;52.014;8.540;2022-08-21T13:24:24;100130.25;;;22.42;54.31
2188;BME280;1100;52.014;8.540;2022-08-21T13:26:53;100128.97;;;22.43;53.91
2188;BME280;1100;52.014;8.540;2022-08-21T13:29:22;100133.88;;;22.43;54.06
2188;BME280;1100;52.014;8.540;2022-08-21T13:31:56;100137.47;;;22.43;54.20
2188;BME280;1100;52.014;8.540;2022-08-21T13:34:25;100136.94;;;22.45;53.87
2188;BME280;1100;52.014;8.540;2022-08-21T13:36:55;100133.59;;;22.46;53.93
2188;BME280;1100;52.014;8.540;2022-08-21T13:39:21;100130.25;;;22.48;53.91
2188;BME280;1100;52.014;8.540;2022-08-21T13:41:50;100136.66;;;22.48;53.93
2188;BME280;1100;52.014;8.540;2022-08-21T13:44:22;100133.81;;;22.48;53.92
2188;BME280;1100;52.014;8.540;2022-08-21T13:46:52;100127.63;;;22.50;53.91
2188;BME280;1100;52.014;8.540;2022-08-21T13:49:23;100134.09;;;22.50;53.77
2188;BME280;1100;52.014;8.540;2022-08-21T13:51:51;100135.63;;;22.51;53.70
2188;BME280;1100;52.014;8.540;2022-08-21T13:54:26;100136.38;;;22.52;53.81
2188;BME280;1100;52.014;8.540;2022-08-21T13:56:53;100137.16;;;22.52;53.71
2188;BME280;1100;52.014;8.540;2022-08-21T13:59:33;100133.81;;;22.54;53.94
2188;BME280;1100;52.014;8.540;2022-08-21T14:02:22;100129.69;;;22.55;53.78
2188;BME280;1100;52.014;8.540;2022-08-21T14:04:56;100134.56;;;22.55;53.84
2188;BME280;1100;52.014;8.540;2022-08-21T14:07:31;100141.00;;;22.55;53.50
2188;BME280;1100;52.014;8.540;2022-08-21T14:10:04;100132.25;;;22.53;53.66
2188;BME280;1100;52.014;8.540;2022-08-21T14:12:47;100130.72;;;22.52;53.57
2188;BME280;1100;52.014;8.540;2022-08-21T14:15:16;100137.69;;;22.51;53.90
2188;BME280;1100;52.014;8.540;2022-08-21T14:17:43;100144.63;;;22.50;53.65
2188;BME280;1100;52.014;8.540;2022-08-21T14:20:12;100142.56;;;22.50;53.76
2188;BME280;1100;52.014;8.540;2022-08-21T14:22:49;100141.78;;;22.50;53.43
2188;BME280;1100;52.014;8.540;2022-08-21T14:28:44;100142.31;;;22.48;53.72
2188;BME280;1100;52.014;8.540;2022-08-21T14:30:51;100139.25;;;22.46;53.61
2188;BME280;1100;52.014;8.540;2022-08-21T14:33:23;100138.47;;;22.46;53.86
2188;BME280;1100;52.014;8.540;2022-08-21T14:35:50;100134.88;;;22.45;53.76
2188;BME280;1100;52.014;8.540;2022-08-21T14:38:18;100134.13;;;22.45;53.54